Time;durP1;ratioP1;P1;durP2;ratioP2;P2;SDS_P1;SDS_P2;PMS_P1;PMS_P2;Temp;Humidity;BMP_temperature;BMP_pressure;BME280_temperature;BME280_humidity;BME280_pressure;Samples;Min_cycle;Max_cycle;Signal;HPM_P1;HPM_P2
2022/04/08 00:02:24;;;;;;;6.10;2.03;;;9.60;1.00;10.00;98655.00;;;;5091269;28;20492;-78
2022/04/08 00:04:53;;;;;;;9.73;1.77;;;9.60;1.00;10.00;98671.00;;;;5093493;28;20451;-78
2022/04/08 00:07:21;;;;;;;6.87;1.83;;;9.60;1.00;10.10;98657.00;;;;5090647;28;20489;-78
2022/04/08 00:09:50;;;;;;;5.33;1.37;;;9.60;1.00;10.00;98668.00;;;;5092996;28;20502;-78
2022/04/08 00:12:18;;;;;;;6.10;1.70;;;9.60;1.00;10.00;98664.00;;;;5092798;28;20505;-78
2022/04/08 00:14:47;;;;;;;6.37;1.50;;;9.60;1.00;10.00;98675.00;;;;5096039;28;20453;-78
2022/04/08 00:17:17;;;;;;;5.67;1.67;;;9.60;1.00;10.00;98686.00;;;;5101138;28;20850;-78
2022/04/08 00:19:46;;;;;;;8.20;2.00;;;9.50;1.00;9.90;98680.00;;;;5117842;27;20449;-78
2022/04/08 00:22:16;;;;;;;5.93;1.80;;;9.60;1.00;10.00;98677.00;;;;5111737;28;20449;-78
2022/04/08 00:24:53;;;;;;;5.80;1.30;;;9.50;1.00;10.00;98678.00;;;;5129025;27;20468;-79
2022/04/08 00:27:23;;;;;;;8.43;1.83;;;9.60;1.00;10.00;98677.00;;;;5118919;27;20537;-79
2022/04/08 00:29:51;;;;;;;8.70;2.07;;;9.50;1.00;10.00;98688.00;;;;5105353;27;20458;-78
2022/04/08 00:32:21;;;;;;;3.27;1.37;;;9.60;1.00;9.90;98694.00;;;;5107606;28;20547;-77
2022/04/08 00:34:50;;;;;;;8.10;1.70;;;9.60;1.00;10.00;98699.00;;;;5093025;28;20480;-78
2022/04/08 00:37:18;;;;;;;3.43;1.50;;;9.60;1.00;10.00;98688.00;;;;5098659;28;20507;-78
2022/04/08 00:39:46;;;;;;;6.90;1.60;;;9.60;1.00;10.00;98698.00;;;;5099601;28;20459;-78
2022/04/08 00:42:15;;;;;;;7.73;1.90;;;9.60;1.00;10.00;98723.00;;;;5100807;28;20449;-78
2022/04/08 00:44:43;;;;;;;8.80;1.77;;;9.70;1.00;10.10;98714.00;;;;5099490;27;20453;-78
2022/04/08 00:47:12;;;;;;;5.03;1.50;;;9.70;1.00;10.10;98712.00;;;;5114015;27;20491;-78
2022/04/08 00:49:43;;;;;;;7.80;2.40;;;9.70;1.00;10.10;98712.00;;;;5097296;28;20547;-78
2022/04/08 00:52:11;;;;;;;7.70;2.10;;;9.70;1.00;10.20;98737.00;;;;5097772;28;20454;-78
2022/04/08 00:54:41;;;;;;;6.50;1.60;;;9.80;1.00;10.20;98725.00;;;;5097821;28;21367;-78
2022/04/08 00:57:09;;;;;;;13.00;2.53;;;9.80;1.00;10.20;98713.00;;;;5099847;27;20468;-78
2022/04/08 00:59:38;;;;;;;7.17;1.80;;;9.80;1.00;10.20;98714.00;;;;5083130;28;20445;-78
2022/04/08 01:02:07;;;;;;;6.30;1.67;;;9.80;1.00;10.20;98730.00;;;;5097213;28;20448;-78
2022/04/08 01:04:35;;;;;;;7.30;1.90;;;9.80;1.00;10.10;98744.00;;;;5094118;28;20448;-78
2022/04/08 01:07:05;;;;;;;6.00;1.73;;;9.70;1.00;10.10;98727.00;;;;5086278;28;20492;-77
2022/04/08 01:09:34;;;;;;;6.50;2.07;;;9.70;1.00;10.10;98744.00;;;;5101522;28;20473;-78
2022/04/08 01:12:03;;;;;;;8.93;1.80;;;9.70;1.00;10.10;98762.00;;;;5109608;28;20447;-78
2022/04/08 01:14:32;;;;;;;9.03;1.80;;;9.80;1.00;10.10;98764.00;;;;5119772;28;20946;-77
2022/04/08 01:17:00;;;;;;;7.90;1.50;;;9.80;1.00;10.20;98773.00;;;;5116949;28;20477;-78
2022/04/08 01:19:28;;;;;;;7.87;1.90;;;9.70;1.00;10.20;98769.00;;;;5106247;27;20445;-79
2022/04/08 01:21:56;;;;;;;6.77;1.90;;;9.80;1.00;10.20;98794.00;;;;5104918;28;20461;-78
2022/04/08 01:24:29;;;;;;;6.33;2.80;;;9.90;1.00;10.20;98828.00;;;;5103866;28;20863;-78
2022/04/08 01:26:58;;;;;;;3.73;1.30;;;9.90;1.00;10.10;98819.00;;;;5103109;28;20492;-78
2022/04/08 01:29:26;;;;;;;1.47;0.70;;;9.90;1.00;9.70;98831.00;;;;5100691;28;20442;-77
2022/04/08 01:31:55;;;;;;;6.60;1.53;;;9.50;1.00;9.60;98821.00;;;;5099356;27;20452;-77
2022/04/08 01:34:23;;;;;;;5.10;1.60;;;9.30;1.00;9.40;98817.00;;;;5099671;28;20466;-77
2022/04/08 01:36:51;;;;;;;3.57;1.63;;;9.20;1.00;9.20;98838.00;;;;5100189;28;20468;-77
2022/04/08 01:39:19;;;;;;;3.37;1.20;;;8.90;1.00;9.10;98828.00;;;;5098414;28;20480;-78
2022/04/08 01:41:48;;;;;;;4.10;1.30;;;8.90;1.00;9.20;98833.00;;;;5096077;28;20450;-78
2022/04/08 01:44:18;;;;;;;4.37;2.13;;;8.70;1.00;9.10;98851.00;;;;5093385;28;20453;-78
2022/04/08 01:46:47;;;;;;;2.60;1.07;;;8.70;1.00;9.00;98840.00;;;;5090494;28;20499;-79
2022/04/08 01:49:15;;;;;;;3.23;1.20;;;8.90;1.00;8.90;98839.00;;;;5091819;28;21329;-80
2022/04/08 01:51:43;;;;;;;2.17;0.97;;;8.50;1.00;8.80;98849.00;;;;5093756;28;20460;-80
2022/04/08 01:54:12;;;;;;;2.30;1.47;;;8.40;1.00;8.90;98842.00;;;;5093987;28;20445;-79
2022/04/08 01:56:40;;;;;;;5.20;1.27;;;8.40;1.00;8.90;98837.00;;;;5090772;28;20465;-79
2022/04/08 01:59:08;;;;;;;2.03;1.03;;;8.40;1.00;8.90;98836.00;;;;5093338;28;20458;-80
2022/04/08 02:01:38;;;;;;;1.70;0.90;;;8.50;1.00;8.90;98834.00;;;;5095441;28;20869;-79
2022/04/08 02:04:07;;;;;;;3.97;1.30;;;8.50;1.00;8.90;98843.00;;;;5091331;28;20480;-79
2022/04/08 02:06:36;;;;;;;3.80;1.30;;;8.50;1.00;8.70;98835.00;;;;5092711;28;20454;-79
2022/04/08 02:09:05;;;;;;;4.07;1.40;;;8.70;1.00;8.80;98851.00;;;;5091305;28;20481;-79
2022/04/08 02:11:33;;;;;;;3.20;1.20;;;8.40;1.00;8.70;98844.00;;;;5096778;28;20457;-79
2022/04/08 02:14:01;;;;;;;3.83;1.20;;;8.30;1.00;8.80;98860.00;;;;5095289;28;20491;-79
2022/04/08 02:16:29;;;;;;;2.63;1.30;;;8.30;1.00;8.70;98859.00;;;;5095216;28;20471;-79
2022/04/08 02:18:59;;;;;;;2.50;1.13;;;8.40;1.00;8.80;98874.00;;;;5094056;28;20817;-80
2022/04/08 02:21:27;;;;;;;2.27;1.10;;;8.40;1.00;8.80;98852.00;;;;5094624;28;20465;-79
2022/04/08 02:23:56;;;;;;;3.20;1.20;;;8.40;1.00;8.80;98871.00;;;;5093862;28;21435;-80
2022/04/08 02:26:24;;;;;;;5.00;1.53;;;8.40;1.00;8.70;98877.00;;;;5092836;28;21129;-79
2022/04/08 02:28:52;;;;;;;5.77;2.37;;;8.30;1.00;8.70;98875.00;;;;5092757;28;20473;-79
2022/04/08 02:31:21;;;;;;;2.73;1.23;;;8.30;1.00;8.70;98893.00;;;;5092382;28;20481;-79
2022/04/08 02:33:49;;;;;;;5.30;1.80;;;8.30;1.00;8.60;98895.00;;;;5091702;28;20876;-79
2022/04/08 02:36:18;;;;;;;6.20;2.47;;;8.20;1.00;8.50;98910.00;;;;5092148;28;20460;-78
2022/04/08 02:38:47;;;;;;;6.80;1.00;;;8.10;1.00;8.40;98923.00;;;;5091793;28;20465;-80
2022/04/08 02:41:15;;;;;;;3.77;1.70;;;8.00;1.00;8.30;98899.00;;;;5094397;28;20449;-79
2022/04/08 02:43:43;;;;;;;2.83;1.40;;;7.90;1.00;8.00;98916.00;;;;5091336;28;20821;-79
2022/04/08 02:46:13;;;;;;;1.70;0.90;;;7.60;1.00;7.60;98905.00;;;;5092433;28;20464;-79
2022/04/08 02:48:41;;;;;;;3.13;0.83;;;7.30;1.00;7.50;98906.00;;;;5092206;28;20954;-79
2022/04/08 02:51:10;;;;;;;2.13;0.80;;;7.10;1.00;7.40;98912.00;;;;5096244;28;20453;-79
2022/04/08 02:53:39;;;;;;;2.07;0.63;;;7.00;1.00;7.30;98904.00;;;;5094804;28;20864;-79
2022/04/08 02:56:07;;;;;;;1.50;0.90;;;6.90;1.00;7.30;98920.00;;;;5098485;28;20445;-80
2022/04/08 02:58:37;;;;;;;1.47;0.80;;;6.80;1.00;7.30;98921.00;;;;5095124;28;20465;-79
2022/04/08 03:01:05;;;;;;;1.10;0.70;;;7.00;1.00;7.40;98922.00;;;;5094515;28;20457;-78
2022/04/08 03:03:33;;;;;;;1.30;0.80;;;6.90;1.00;7.30;98935.00;;;;5092302;28;20460;-78
2022/04/08 03:06:02;;;;;;;2.60;1.30;;;6.90;1.00;7.40;98920.00;;;;5093503;28;20543;-76
2022/04/08 03:08:30;;;;;;;2.40;1.00;;;6.90;1.00;7.40;98936.00;;;;5107200;28;20577;-77
2022/04/08 03:11:00;;;;;;;2.00;1.20;;;6.90;1.00;7.30;98935.00;;;;5105213;28;20445;-77
2022/04/08 03:13:28;;;;;;;1.80;1.27;;;6.90;1.00;7.10;98953.00;;;;5102579;28;20461;-77
2022/04/08 03:15:57;;;;;;;2.03;0.90;;;6.80;1.00;7.20;67853.00;;;;5098068;28;21523;-78
2022/04/08 03:18:25;;;;;;;1.90;1.33;;;6.80;1.00;7.20;98939.00;;;;5095565;28;20582;-78
2022/04/08 03:20:53;;;;;;;2.00;1.27;;;6.80;1.00;7.10;98930.00;;;;5095616;28;20461;-78
2022/04/08 03:23:22;;;;;;;6.00;1.60;;;7.00;1.00;7.00;98936.00;;;;5094361;28;20461;-79
2022/04/08 03:25:50;;;;;;;2.73;1.47;;;6.60;1.00;7.00;98953.00;;;;5096245;28;21033;-78
2022/04/08 03:28:20;;;;;;;1.97;1.20;;;6.60;1.00;7.00;98946.00;;;;5094385;28;20481;-79
2022/04/08 03:30:48;;;;;;;3.00;1.37;;;6.70;1.00;7.00;98950.00;;;;5095511;28;20526;-78
2022/04/08 03:33:16;;;;;;;2.40;1.00;;;6.80;1.00;7.00;98940.00;;;;5094651;28;20889;-77
2022/04/08 03:35:44;;;;;;;5.43;1.00;;;6.60;1.00;7.00;98925.00;;;;5094654;28;20832;-78
2022/04/08 03:38:12;;;;;;;2.30;1.43;;;6.60;1.00;7.00;98930.00;;;;5096146;28;20477;-78
2022/04/08 03:40:41;;;;;;;1.87;1.40;;;6.60;1.00;6.90;98934.00;;;;5099106;28;20454;-77
2022/04/08 03:43:09;;;;;;;2.30;1.50;;;6.60;1.00;7.00;98943.00;;;;5099420;28;20447;-78
2022/04/08 03:45:39;;;;;;;4.80;2.60;;;6.70;1.00;7.00;98937.00;;;;5112981;28;20446;-78
2022/04/08 03:48:09;;;;;;;2.57;1.50;;;6.70;1.00;7.00;98923.00;;;;5118614;28;20488;-77
2022/04/08 03:50:37;;;;;;;3.70;1.80;;;6.70;1.00;7.10;98935.00;;;;5127672;28;20468;-77
2022/04/08 03:53:06;;;;;;;2.30;1.50;;;6.70;1.00;7.10;98940.00;;;;5126445;28;20488;-78
2022/04/08 03:55:34;;;;;;;2.87;1.13;;;6.80;1.00;7.20;98921.00;;;;5122008;28;20525;-77
2022/04/08 03:58:03;;;;;;;3.13;1.50;;;6.80;1.00;7.20;98922.00;;;;5118053;28;20513;-78
2022/04/08 04:00:31;;;;;;;2.90;1.20;;;6.90;1.00;7.30;98913.00;;;;5102413;28;20449;-78
2022/04/08 04:03:00;;;;;;;3.83;1.60;;;7.00;1.00;7.30;98934.00;;;;5096260;28;20457;-77
2022/04/08 04:05:29;;;;;;;2.50;1.27;;;7.00;1.00;7.30;98922.00;;;;5091972;28;20447;-80
2022/04/08 04:07:59;;;;;;;4.57;1.77;;;7.00;1.00;7.30;98931.00;;;;5093035;28;20485;-80
2022/04/08 04:10:28;;;;;;;3.57;1.70;;;7.00;1.00;7.30;98925.00;;;;5092625;28;20445;-80
2022/04/08 04:12:56;;;;;;;3.50;1.37;;;7.00;1.00;7.30;98922.00;;;;5094012;28;20450;-79
2022/04/08 04:15:24;;;;;;;3.43;1.60;;;7.00;1.00;7.30;98945.00;;;;5094297;28;22187;-79
2022/04/08 04:17:52;;;;;;;2.83;1.47;;;7.00;1.00;7.40;98965.00;;;;5098187;28;20877;-78
2022/04/08 04:20:22;;;;;;;1.87;1.30;;;7.10;1.00;7.40;98961.00;;;;5092516;28;21190;-80
2022/04/08 04:22:53;;;;;;;3.40;1.50;;;7.10;1.00;7.40;98947.00;;;;5092132;28;20464;-79
2022/04/08 04:25:21;;;;;;;4.50;1.77;;;7.10;1.00;7.50;98970.00;;;;5096365;28;20460;-79
2022/04/08 04:27:50;;;;;;;2.13;1.40;;;7.10;1.00;7.50;98935.00;;;;5110539;28;20807;-80
2022/04/08 04:30:18;;;;;;;2.57;1.67;;;7.20;1.00;7.50;98981.00;;;;5091443;28;20477;-79
2022/04/08 04:32:46;;;;;;;2.30;1.30;;;7.30;1.00;7.50;98978.00;;;;5089669;28;20457;-79
2022/04/08 04:35:14;;;;;;;1.83;1.10;;;7.20;1.00;7.50;98981.00;;;;5094129;28;20456;-79
2022/04/08 04:37:46;;;;;;;2.60;1.33;;;7.20;1.00;7.60;98985.00;;;;5095447;28;20537;-79
2022/04/08 04:40:15;;;;;;;2.33;1.50;;;7.30;1.00;7.60;98987.00;;;;5093738;28;20449;-80
2022/04/08 04:42:43;;;;;;;4.90;1.60;;;7.40;1.00;217.30;159976.00;;;;5093367;28;20464;-79
2022/04/08 04:45:13;;;;;;;2.67;1.73;;;7.40;1.00;7.70;99015.00;;;;5094894;28;20453;-79
2022/04/08 04:47:41;;;;;;;2.27;1.53;;;7.40;1.00;7.70;98999.00;;;;5080017;28;21032;-81
2022/04/08 04:50:10;;;;;;;1.80;1.13;;;7.50;1.00;7.80;99018.00;;;;5100772;28;20474;-79
2022/04/08 04:52:40;;;;;;;2.70;1.27;;;7.50;1.00;7.80;99007.00;;;;5097442;28;20692;-80
2022/04/08 04:55:10;;;;;;;3.73;1.17;;;7.60;1.00;7.90;99026.00;;;;5107233;28;20460;-79
2022/04/08 04:57:39;;;;;;;1.83;1.17;;;7.60;1.00;7.90;99024.00;;;;5105759;28;20508;-78
2022/04/08 05:00:09;;;;;;;1.97;1.20;;;7.60;1.00;8.00;99014.00;;;;5101796;28;20461;-79
2022/04/08 05:02:38;;;;;;;2.57;1.47;;;7.70;1.00;8.00;99017.00;;;;5104327;28;20451;-79
2022/04/08 05:05:08;;;;;;;2.97;1.50;;;7.70;1.00;8.00;99024.00;;;;5105776;28;20831;-78
2022/04/08 05:07:37;;;;;;;2.70;1.40;;;7.70;1.00;8.00;99028.00;;;;5103703;28;20465;-79
2022/04/08 05:10:07;;;;;;;2.60;1.37;;;7.70;1.00;8.10;99029.00;;;;5099922;28;20505;-78
2022/04/08 05:12:47;;;;;;;2.67;1.13;;;7.80;1.00;8.00;99036.00;;;;5100778;28;20449;-82
2022/04/08 05:15:15;;;;;;;2.43;1.30;;;7.80;1.00;8.10;99037.00;;;;5109805;28;20446;-80
2022/04/08 05:17:45;;;;;;;2.90;1.23;;;7.80;1.00;8.00;99032.00;;;;5100044;28;20473;-80
2022/04/08 05:20:13;;;;;;;1.80;1.17;;;7.70;1.00;8.10;99051.00;;;;5098767;28;20521;-81
2022/04/08 05:22:42;;;;;;;5.20;1.37;;;7.80;1.00;8.10;99028.00;;;;5098681;28;20456;-81
2022/04/08 05:25:11;;;;;;;3.87;1.90;;;7.80;1.00;8.10;99040.00;;;;5099094;28;20446;-79
2022/04/08 05:27:42;;;;;;;3.23;1.20;;;7.80;1.00;8.10;99031.00;;;;5099488;28;20458;-79
2022/04/08 05:30:15;;;;;;;2.23;1.30;;;7.80;1.00;8.10;99034.00;;;;5098440;28;20465;-79
2022/04/08 05:32:59;;;;;;;5.43;1.50;;;7.80;1.00;8.10;99015.00;;;;5103455;28;20550;-80
2022/04/08 05:35:28;;;;;;;7.80;1.87;;;7.80;1.00;8.10;99018.00;;;;5102516;28;20457;-78
2022/04/08 05:37:57;;;;;;;2.63;1.33;;;7.80;1.00;8.10;99014.00;;;;5097198;28;20498;-78
2022/04/08 05:40:25;;;;;;;3.87;1.70;;;7.80;1.00;8.10;99015.00;;;;5095189;28;20954;-78
2022/04/08 05:42:53;;;;;;;2.93;1.50;;;7.90;1.00;8.10;99022.00;;;;5097204;28;20453;-78
2022/04/08 05:45:23;;;;;;;3.40;1.73;;;7.90;1.00;8.20;99020.00;;;;5095633;28;20513;-78
2022/04/08 05:47:54;;;;;;;3.20;1.97;;;7.90;1.00;8.20;99012.00;;;;5098698;28;20469;-78
2022/04/08 05:50:23;;;;;;;3.63;2.10;;;7.90;1.00;8.20;99024.00;;;;5094791;28;20568;-78
2022/04/08 05:52:52;;;;;;;5.13;1.93;;;7.90;1.00;8.30;99021.00;;;;5098281;28;20454;-78
2022/04/08 05:55:21;;;;;;;3.30;1.30;;;8.20;1.00;8.50;99009.00;;;;5099262;28;20461;-77
2022/04/08 05:57:49;;;;;;;5.83;1.83;;;8.20;1.00;8.60;99016.00;;;;5098031;28;20898;-78
2022/04/08 06:00:20;;;;;;;4.47;1.50;;;8.20;1.00;8.60;99015.00;;;;5097120;28;20453;-78
2022/04/08 06:02:50;;;;;;;5.50;1.40;;;8.30;1.00;8.70;99013.00;;;;5095681;28;20454;-77
2022/04/08 06:05:19;;;;;;;3.10;1.57;;;8.60;1.00;8.70;99020.00;;;;5096883;28;20534;-78
2022/04/08 06:07:48;;;;;;;6.43;2.37;;;8.40;1.00;8.80;99032.00;;;;5096967;28;20464;-78
2022/04/08 06:10:18;;;;;;;3.00;1.67;;;8.40;1.00;8.70;99026.00;;;;5095263;28;20512;-77
2022/04/08 06:12:47;;;;;;;4.43;1.93;;;8.40;1.00;8.70;99031.00;;;;5100328;28;20450;-78
2022/04/08 06:15:16;;;;;;;5.43;1.90;;;8.40;1.00;8.70;99024.00;;;;5096481;28;20493;-78
2022/04/08 06:17:45;;;;;;;4.03;2.00;;;8.70;1.00;8.80;99023.00;;;;5103193;28;20469;-78
2022/04/08 06:20:17;;;;;;;6.13;2.00;;;8.40;1.00;8.80;99027.00;;;;5099761;28;20453;-78
2022/04/08 06:22:47;;;;;;;4.20;1.87;;;8.50;1.00;8.90;99033.00;;;;5097498;28;20484;-78
2022/04/08 06:25:19;;;;;;;3.70;1.73;;;8.60;1.00;9.00;99021.00;;;;5100621;28;20445;-78
2022/04/08 06:27:57;;;;;;;3.77;1.70;;;8.70;1.00;9.10;99029.00;;;;5096705;28;20524;-78
2022/04/08 06:30:26;;;;;;;3.83;1.80;;;8.80;1.00;9.20;99007.00;;;;5098325;28;20466;-78
2022/04/08 06:32:55;;;;;;;4.93;2.00;;;8.90;1.00;9.40;98995.00;;;;5098175;28;20839;-78
2022/04/08 06:35:24;;;;;;;5.53;2.13;;;9.00;1.00;9.50;98988.00;;;;5095789;28;20955;-78
2022/04/08 06:37:59;;;;;;;5.13;1.97;;;9.20;1.00;9.70;98989.00;;;;5096962;28;20963;-78
2022/04/08 06:40:28;;;;;;;8.03;1.90;;;9.60;1.00;9.90;98991.00;;;;5094533;28;20450;-77
2022/04/08 06:42:59;;;;;;;3.80;1.80;;;9.60;1.00;10.00;98980.00;;;;5096578;28;20875;-78
2022/04/08 06:45:27;;;;;;;4.77;1.90;;;9.70;1.00;10.10;98981.00;;;;5096659;28;20462;-79
2022/04/08 06:47:56;;;;;;;4.83;1.70;;;9.80;1.00;10.20;98980.00;;;;5113466;27;20488;-78
2022/04/08 06:50:26;;;;;;;5.73;1.67;;;9.90;1.00;10.20;98984.00;;;;5099052;28;20474;-78
2022/04/08 06:52:59;;;;;;;5.80;1.70;;;9.90;1.00;10.30;98986.00;;;;5104354;28;20453;-78
2022/04/08 06:55:28;;;;;;;3.60;2.03;;;10.00;1.00;10.40;98981.00;;;;5105885;28;20457;-78
2022/04/08 06:57:58;;;;;;;4.97;1.70;;;10.20;1.00;10.50;98978.00;;;;5107922;28;20590;-78
2022/04/08 07:00:27;;;;;;;4.83;1.90;;;10.50;1.00;10.50;98985.00;;;;5112027;28;20454;-79
2022/04/08 07:02:56;;;;;;;4.53;1.90;;;10.30;1.00;10.50;98972.00;;;;5106782;28;20473;-79
2022/04/08 07:05:26;;;;;;;7.03;2.00;;;10.40;1.00;10.30;98970.00;;;;5106098;28;20465;-79
2022/04/08 07:07:54;;;;;;;6.73;1.97;;;10.10;1.00;10.30;98964.00;;;;5103567;28;20488;-79
2022/04/08 07:10:23;;;;;;;4.80;2.20;;;10.00;1.00;10.30;98952.00;;;;5101724;28;20538;-78
2022/04/08 07:12:51;;;;;;;7.30;2.53;;;10.00;1.00;10.30;98968.00;;;;5099587;28;20503;-78
2022/04/08 07:15:20;;;;;;;5.73;2.10;;;10.10;1.00;10.20;98961.00;;;;5096769;28;20453;-79
2022/04/08 07:17:48;;;;;;;7.37;2.53;;;9.90;1.00;10.10;98959.00;;;;5095125;28;20542;-79
2022/04/08 07:20:18;;;;;;;8.80;2.13;;;9.80;1.00;10.00;98945.00;;;;5094698;28;20454;-79
2022/04/08 07:22:48;;;;;;;10.70;1.80;;;9.70;1.00;10.00;98955.00;;;;5094438;28;20450;-79
2022/04/08 07:25:18;;;;;;;11.30;2.30;;;9.60;1.00;10.00;98941.00;;;;5098679;28;20449;-79
2022/04/08 07:27:48;;;;;;;11.40;2.43;;;9.70;1.00;9.90;98935.00;;;;5095832;28;20461;-78
2022/04/08 07:30:21;;;;;;;9.00;2.37;;;9.60;1.00;9.90;98925.00;;;;5088935;28;20812;-78
2022/04/08 07:32:52;;;;;;;8.50;2.40;;;9.60;1.00;9.90;98939.00;;;;5094354;28;20484;-78
2022/04/08 07:35:22;;;;;;;9.27;2.60;;;9.60;1.00;9.80;98934.00;;;;5093957;28;20967;-79
2022/04/08 07:37:51;;;;;;;8.80;2.50;;;9.50;1.00;9.90;98924.00;;;;5102194;28;20513;-79
2022/04/08 07:40:21;;;;;;;10.80;4.00;;;9.60;1.00;9.80;98942.00;;;;5096303;28;20553;-80
2022/04/08 07:42:50;;;;;;;8.03;2.20;;;9.40;1.00;9.80;98936.00;;;;5095961;28;20981;-79
2022/04/08 07:45:19;;;;;;;7.53;2.67;;;9.40;1.00;9.90;98935.00;;;;5096663;28;20462;-79
2022/04/08 07:47:49;;;;;;;13.83;3.17;;;9.60;1.00;10.10;98927.00;;;;5097537;28;20469;-79
2022/04/08 07:50:17;;;;;;;8.90;2.80;;;9.70;1.00;10.30;98921.00;;;;5095367;28;20486;-81
2022/04/08 07:52:46;;;;;;;9.23;2.40;;;9.90;1.00;10.60;98924.00;;;;5101777;28;21169;-79
2022/04/08 07:55:17;;;;;;;9.43;3.43;;;10.20;1.00;10.80;98920.00;;;;5101186;28;20458;-78
2022/04/08 07:57:46;;;;;;;7.83;2.47;;;10.30;1.00;11.00;98921.00;;;;5101600;28;20516;-80
2022/04/08 08:00:19;;;;;;;12.07;3.30;;;10.50;1.00;11.20;98920.00;;;;5097951;28;20449;-79
2022/04/08 08:02:48;;;;;;;4.87;2.37;;;10.80;1.00;11.20;98927.00;;;;5096325;28;20553;-80
2022/04/08 08:05:18;;;;;;;10.40;3.07;;;10.80;1.00;11.20;98921.00;;;;5100349;28;20490;-79
2022/04/08 08:07:51;;;;;;;5.37;2.53;;;11.00;1.00;11.30;98910.00;;;;5098290;28;20473;-79
2022/04/08 08:10:22;;;;;;;7.87;3.10;;;11.00;1.00;11.20;98911.00;;;;5096918;28;20477;-79
2022/04/08 08:12:52;;;;;;;6.90;2.47;;;10.90;1.00;11.00;98915.00;;;;5089883;28;20457;-79
2022/04/08 08:15:21;;;;;;;10.00;2.77;;;10.60;1.00;10.80;98912.00;;;;5090638;28;21049;-78
2022/04/08 08:17:50;;;;;;;11.80;3.07;;;10.50;1.00;10.60;98906.00;;;;5102558;28;20483;-79
2022/04/08 08:20:20;;;;;;;9.53;2.80;;;10.20;1.00;10.50;98915.00;;;;5104328;28;20643;-79
2022/04/08 08:22:50;;;;;;;11.17;3.47;;;10.10;1.00;10.60;98914.00;;;;5103928;28;20442;-78
2022/04/08 08:25:21;;;;;;;9.17;2.30;;;10.10;1.00;10.60;98919.00;;;;5106796;28;20489;-78
2022/04/08 08:27:54;;;;;;;7.87;2.30;;;10.20;1.00;10.60;98921.00;;;;5091104;28;20476;-78
2022/04/08 08:30:23;;;;;;;10.07;2.77;;;10.20;1.00;10.60;98917.00;;;;5102062;28;20496;-79
2022/04/08 08:32:52;;;;;;;7.33;2.30;;;10.10;1.00;10.60;98924.00;;;;5104530;28;20467;-79
2022/04/08 08:35:21;;;;;;;7.50;2.97;;;10.10;1.00;10.50;98922.00;;;;5103133;28;20449;-79
2022/04/08 08:37:50;;;;;;;8.20;3.23;;;10.30;1.00;10.40;98914.00;;;;5099435;28;20482;-79
2022/04/08 08:40:21;;;;;;;12.20;2.40;;;10.00;1.00;10.30;98910.00;;;;5093050;28;20497;-80
2022/04/08 08:42:49;;;;;;;11.57;2.80;;;9.80;1.00;10.30;98915.00;;;;5104642;28;20472;-78
2022/04/08 08:45:18;;;;;;;8.77;2.70;;;9.80;1.00;10.30;98921.00;;;;5101761;28;20464;-77
2022/04/08 08:47:52;;;;;;;12.13;3.33;;;9.80;1.00;10.40;98915.00;;;;5100409;28;20484;-79
2022/04/08 08:50:20;;;;;;;13.10;3.23;;;9.90;1.00;10.50;98910.00;;;;5112082;28;20973;-79
2022/04/08 08:52:51;;;;;;;11.10;2.97;;;10.00;1.00;10.50;98897.00;;;;5109425;28;20445;-80
2022/04/08 08:55:24;;;;;;;13.03;3.90;;;10.00;1.00;10.50;98894.00;;;;5109049;28;20434;-79
2022/04/08 08:57:52;;;;;;;8.53;3.37;;;10.00;1.00;10.60;98895.00;;;;5103523;28;20580;-79
2022/04/08 09:00:23;;;;;;;11.57;3.67;;;10.10;1.00;10.80;98900.00;;;;5102606;28;20487;-80
2022/04/08 09:02:53;;;;;;;10.20;3.33;;;10.30;1.00;11.00;98896.00;;;;5100808;28;20442;-78
2022/04/08 09:05:25;;;;;;;11.90;3.83;;;10.60;1.00;11.10;98884.00;;;;5103187;28;20453;-79
2022/04/08 09:07:57;;;;;;;12.07;3.70;;;10.80;1.00;11.20;98894.00;;;;5104425;28;20463;-78
2022/04/08 09:10:30;;;;;;;11.73;3.40;;;10.80;1.00;11.20;98890.00;;;;5109260;28;20518;-79
2022/04/08 09:13:00;;;;;;;10.07;3.17;;;10.90;1.00;11.10;98873.00;;;;5108039;28;20442;-79
2022/04/08 09:15:29;;;;;;;8.70;3.13;;;10.70;1.00;11.00;98878.00;;;;5106823;28;20474;-79
2022/04/08 09:18:08;;;;;;;9.27;2.73;;;10.70;1.00;11.00;98885.00;;;;5115671;28;20466;-79
2022/04/08 09:20:42;;;;;;;10.53;3.60;;;10.70;1.00;11.00;98870.00;;;;5112042;28;20465;-80
2022/04/08 09:23:12;;;;;;;11.70;2.70;;;10.70;1.00;10.90;98868.00;;;;5104945;28;20448;-80
2022/04/08 09:25:42;;;;;;;12.60;3.40;;;10.60;1.00;10.80;98867.00;;;;5100810;28;20986;-78
2022/04/08 09:28:16;;;;;;;10.67;3.40;;;10.50;1.00;10.80;98863.00;;;;5102277;28;20477;-80
2022/04/08 09:30:52;;;;;;;8.77;3.30;;;10.50;1.00;10.70;98854.00;;;;5104769;28;20482;-79
2022/04/08 09:33:23;;;;;;;15.03;3.80;;;10.50;1.00;10.60;98863.00;;;;5102308;28;20950;-80
2022/04/08 09:35:55;;;;;;;9.70;3.60;;;10.40;1.00;10.60;98854.00;;;;5122468;27;20532;-82
2022/04/08 09:38:26;;;;;;;9.93;3.50;;;10.30;1.00;10.30;98853.00;;;;5114263;28;20477;-80
2022/04/08 09:41:07;;;;;;;9.27;3.40;;;10.10;1.00;10.00;98852.00;;;;5120888;27;20481;-81
2022/04/08 09:43:37;;;;;;;10.37;4.07;;;9.80;1.00;9.90;98846.00;;;;5105666;28;20446;-81
2022/04/08 09:46:16;;;;;;;13.63;3.50;;;9.90;1.00;9.80;98846.00;;;;5112554;28;20438;-81
2022/04/08 09:48:46;;;;;;;13.30;4.33;;;9.50;1.00;9.80;98837.00;;;;5111114;28;20514;-82
2022/04/08 09:51:20;;;;;;;12.60;3.90;;;9.80;1.00;9.90;98838.00;;;;5107316;28;20466;-81
2022/04/08 09:53:54;;;;;;;12.63;4.30;;;9.60;1.00;9.80;98834.00;;;;5104198;28;20557;-81
2022/04/08 09:56:26;;;;;;;8.83;3.93;;;9.50;1.00;9.70;98824.00;;;;5104719;28;20709;-80
2022/04/08 09:59:05;;;;;;;15.17;5.10;;;9.40;1.00;9.70;98833.00;;;;5109126;28;20433;-82
2022/04/08 10:01:36;;;;;;;6.70;3.47;;;9.40;1.00;9.60;98812.00;;;;5119134;28;20457;-81
2022/04/08 10:04:07;;;;;;;14.60;5.50;;;9.20;1.00;9.40;98823.00;;;;5116293;28;20433;-82
2022/04/08 10:06:36;;;;;;;7.60;3.23;;;9.00;1.00;9.50;98811.00;;;;5118747;28;20445;-82
2022/04/08 10:09:08;;;;;;;8.20;3.83;;;9.10;1.00;9.40;98802.00;;;;5118701;28;20453;-84
2022/04/08 10:11:46;;;;;;;7.07;3.60;;;9.10;1.00;9.50;98801.00;;;;5117180;28;20937;-80
2022/04/08 10:14:37;;;;;;;10.53;3.83;;;9.20;1.00;9.70;98793.00;;;;5119888;28;20441;-83
2022/04/08 10:17:06;;;;;;;10.43;3.70;;;9.50;1.00;9.80;98779.00;;;;5123739;28;20473;-82
2022/04/08 10:19:35;;;;;;;8.63;3.77;;;9.40;1.00;9.80;98776.00;;;;5141922;27;20423;-83
2022/04/08 10:22:17;;;;;;;8.03;3.30;;;9.40;1.00;10.00;98762.00;;;;5131809;28;20446;-81
2022/04/08 10:24:53;;;;;;;9.43;3.73;;;9.60;1.00;10.20;98772.00;;;;5146082;27;20438;-83
2022/04/08 10:27:34;;;;;;;13.77;4.13;;;9.80;1.00;10.30;98767.00;;;;5127735;28;20537;-83
2022/04/08 10:30:13;;;;;;;8.20;4.43;;;9.90;1.00;10.40;98762.00;;;;5118094;28;20426;-80
2022/04/08 10:32:43;;;;;;;11.60;3.70;;;10.10;1.00;10.40;98755.00;;;;5124123;28;20465;-81
2022/04/08 10:35:19;;;;;;;9.77;4.20;;;10.10;1.00;10.40;98754.00;;;;5117770;28;20448;-79
2022/04/08 10:37:58;;;;;;;5.70;2.87;;;10.10;1.00;10.30;98754.00;;;;5115641;28;20488;-80
2022/04/08 10:40:35;;;;;;;7.17;2.70;;;10.00;1.00;10.10;98753.00;;;;5105849;28;20445;-79
2022/04/08 10:43:08;;;;;;;7.23;3.50;;;9.80;1.00;9.80;98760.00;;;;5107107;28;20448;-79
2022/04/08 10:45:38;;;;;;;7.83;3.20;;;9.50;1.00;9.80;98763.00;;;;5113529;28;20456;-79
2022/04/08 10:48:15;;;;;;;7.73;3.50;;;9.50;1.00;9.70;98751.00;;;;5110159;28;20480;-79
2022/04/08 10:50:44;;;;;;;7.77;3.90;;;9.40;1.00;9.70;98752.00;;;;5106918;28;20511;-82
2022/04/08 10:53:14;;;;;;;9.20;4.20;;;9.30;1.00;9.60;98747.00;;;;5108365;28;20978;-81
2022/04/08 10:55:48;;;;;;;13.63;4.10;;;9.20;1.00;9.50;98740.00;;;;5108326;28;20467;-80
2022/04/08 10:58:30;;;;;;;14.40;4.27;;;9.10;1.00;9.50;98740.00;;;;5104390;28;20952;-80
2022/04/08 11:00:59;;;;;;;14.20;3.83;;;9.10;1.00;9.50;98733.00;;;;5105417;28;20481;-82
2022/04/08 11:03:29;;;;;;;8.10;4.57;;;9.10;1.00;9.50;98736.00;;;;5105957;28;20446;-81
2022/04/08 11:05:58;;;;;;;10.27;4.30;;;9.20;1.00;9.70;98741.00;;;;5106105;28;20476;-81
2022/04/08 11:08:26;;;;;;;9.33;3.93;;;9.30;1.00;9.70;98746.00;;;;5105719;28;20510;-81
2022/04/08 11:10:58;;;;;;;4.77;2.10;;;9.30;1.00;217.30;160630.00;;;;5104401;28;20545;-81
2022/04/08 11:13:28;;;;;;;4.67;2.43;;;8.80;1.00;8.90;98732.00;;;;5104561;28;20485;-79
2022/04/08 11:16:02;;;;;;;5.63;2.47;;;8.40;1.00;8.70;98735.00;;;;5105211;28;20476;-79
2022/04/08 11:18:30;;;;;;;5.40;2.30;;;8.20;1.00;8.70;98736.00;;;;5103635;28;20584;-80
2022/04/08 11:20:58;;;;;;;4.43;1.97;;;8.20;1.00;8.70;98749.00;;;;5103717;28;20461;-79
2022/04/08 11:23:28;;;;;;;5.33;2.10;;;8.20;1.00;8.60;98736.00;;;;5105953;28;20504;-81
2022/04/08 11:25:56;;;;;;;4.03;2.13;;;8.00;1.00;8.70;98734.00;;;;5101749;28;20498;-81